Danbury, Wisconsin
Current Conditions -  °F | °C
As of 3:55 AM on Saturday 29 Nov 2014 (Local Time) from KRZN Reporting Station
Clear Clear  
Wind Chill: 13°   Ceiling: Unl
Heat Index: 22°   Visibility: 7mi
Dew Point: 19°   Wind: 8mph
Humidity: 89%   Direction: 150°SSE
Pressure: 29.58"   Gusts: NA
Location:  46.01°N, 92.37°W
Report Text: KRZN 290955Z AUTO 15007KT 7SM CLR M05/M07 A2958 RMK AO2 T10551070
Loading
Personal Weather Stations






























Interactive Weather Map New forecast layout! Learn more

10-Day Weather Forecast

Advertisements
Track Severe Weather on mobile